createdAt,value
2019-02-28T00:01:32.243Z,165.10
2019-02-28T00:03:59.865Z,173.53
2019-02-28T00:06:27.452Z,174.53
2019-02-28T00:08:55.170Z,184.03
2019-02-28T00:11:23.212Z,171.37
2019-02-28T00:13:52.336Z,181.20
2019-02-28T00:16:20.067Z,169.17
2019-02-28T00:18:49.926Z,185.00
2019-02-28T00:21:16.978Z,166.03
2019-02-28T00:23:46.262Z,155.93
2019-02-28T00:26:14.066Z,167.83
2019-02-28T00:28:41.486Z,162.00
2019-02-28T00:31:09.200Z,156.40
2019-02-28T00:33:37.062Z,159.87
2019-02-28T00:36:04.627Z,157.27
2019-02-28T00:38:32.236Z,153.17
2019-02-28T00:40:59.630Z,154.47
2019-02-28T00:43:27.280Z,171.53
2019-02-28T00:45:54.901Z,184.37
2019-02-28T00:48:22.473Z,171.60
2019-02-28T00:50:49.983Z,182.10
2019-02-28T00:53:18.647Z,162.40
2019-02-28T00:55:46.967Z,173.70
2019-02-28T00:58:14.517Z,163.57
2019-02-28T01:00:44.003Z,179.73
2019-02-28T01:03:11.475Z,175.27
2019-02-28T01:05:39.084Z,161.17
2019-02-28T01:08:06.559Z,157.83
2019-02-28T01:10:38.826Z,158.33
2019-02-28T01:13:03.790Z,161.27
2019-02-28T01:15:31.389Z,159.23
2019-02-28T01:18:00.439Z,172.03
2019-02-28T01:20:28.671Z,159.20
2019-02-28T01:26:06.380Z,163.27
2019-02-28T01:28:33.769Z,176.73
2019-02-28T01:31:01.080Z,171.03
2019-02-28T01:33:28.573Z,181.53
2019-02-28T01:35:55.937Z,157.40
2019-02-28T01:38:24.215Z,163.23
2019-02-28T01:40:52.623Z,179.07
2019-02-28T01:43:20.158Z,162.77
2019-02-28T01:45:47.627Z,165.23
2019-02-28T01:48:15.096Z,172.30
2019-02-28T01:50:42.698Z,171.23
2019-02-28T01:53:10.015Z,165.23
2019-02-28T01:55:38.385Z,155.87
2019-02-28T01:58:05.738Z,156.00
2019-02-28T02:00:33.287Z,160.90
2019-02-28T02:03:00.704Z,155.00
2019-02-28T02:05:28.582Z,160.10
2019-02-28T02:07:55.971Z,159.27
2019-02-28T02:10:24.088Z,151.33
2019-02-28T02:12:51.548Z,151.70
2019-02-28T02:15:19.135Z,150.37
2019-02-28T02:17:46.735Z,167.80
2019-02-28T02:20:14.457Z,165.93
2019-02-28T02:22:44.434Z,157.23
2019-02-28T02:25:11.589Z,159.27
2019-02-28T02:27:39.082Z,153.63
2019-02-28T02:30:15.923Z,154.87
2019-02-28T02:32:43.660Z,155.97
2019-02-28T02:35:10.978Z,149.83
2019-02-28T02:37:39.789Z,156.13
2019-02-28T02:40:08.411Z,145.93
2019-02-28T02:42:35.803Z,165.57
2019-02-28T02:45:05.578Z,155.27
2019-02-28T02:47:33.657Z,154.70
2019-02-28T02:50:01.339Z,147.53
2019-02-28T02:52:30.365Z,145.50
2019-02-28T02:54:58.001Z,152.97
2019-02-28T02:57:25.331Z,149.83
2019-02-28T02:59:52.813Z,174.87
2019-02-28T03:02:20.278Z,145.07
2019-02-28T03:04:47.780Z,157.47
2019-02-28T03:07:23.243Z,153.40
2019-02-28T03:09:45.504Z,156.90
2019-02-28T03:12:12.837Z,149.37
2019-02-28T03:14:40.486Z,146.33
2019-02-28T03:17:11.825Z,145.73
2019-02-28T03:19:39.475Z,165.57
2019-02-28T03:22:06.846Z,145.63
2019-02-28T03:24:34.292Z,149.70
2019-02-28T03:27:01.765Z,145.00
2019-02-28T03:29:29.188Z,149.10
2019-02-28T03:31:59.357Z,152.10
2019-02-28T03:34:25.838Z,149.63
2019-02-28T03:36:57.014Z,140.33
2019-02-28T03:39:24.507Z,149.43
2019-02-28T03:41:52.908Z,144.60
2019-02-28T03:44:21.961Z,146.93
2019-02-28T03:46:49.323Z,140.70
2019-02-28T03:49:16.678Z,148.47
2019-02-28T03:51:44.076Z,143.00
2019-02-28T03:54:11.425Z,147.07
2019-02-28T03:56:38.851Z,155.10
2019-02-28T03:59:06.383Z,141.13
2019-02-28T04:01:33.901Z,139.30
2019-02-28T04:04:01.429Z,145.00
2019-02-28T04:06:29.966Z,140.53
2019-02-28T04:08:57.441Z,141.60
2019-02-28T04:11:30.789Z,135.73
2019-02-28T04:13:56.090Z,135.43
2019-02-28T04:16:24.307Z,138.63
2019-02-28T04:18:51.797Z,143.80
2019-02-28T04:21:19.160Z,139.93
2019-02-28T04:23:46.616Z,134.60
2019-02-28T04:26:14.032Z,139.20
2019-02-28T04:28:41.563Z,161.27
2019-02-28T04:31:09.124Z,156.47
2019-02-28T04:33:39.124Z,157.13
2019-02-28T04:36:06.056Z,140.23
2019-02-28T04:38:33.378Z,141.13
2019-02-28T04:41:00.691Z,142.37
2019-02-28T04:43:28.020Z,147.00
2019-02-28T04:45:57.723Z,136.17
2019-02-28T04:48:25.850Z,146.23
2019-02-28T04:50:53.401Z,156.03
2019-02-28T04:53:20.778Z,143.93
2019-02-28T04:55:48.991Z,147.67
2019-02-28T04:58:16.326Z,149.50
2019-02-28T05:00:44.264Z,147.20
2019-02-28T05:03:12.103Z,147.53
2019-02-28T05:05:40.857Z,143.67
2019-02-28T05:08:08.579Z,141.87
2019-02-28T05:10:36.524Z,149.40
2019-02-28T05:13:03.964Z,151.33
2019-02-28T05:15:31.307Z,139.07
2019-02-28T05:17:58.662Z,140.33
2019-02-28T05:20:26.145Z,140.83
2019-02-28T05:22:53.577Z,147.30
2019-02-28T05:25:21.807Z,163.37
2019-02-28T05:27:49.389Z,146.37
2019-02-28T05:30:19.420Z,147.93
2019-02-28T05:32:46.520Z,140.63
2019-02-28T05:35:15.454Z,148.97
2019-02-28T05:37:46.705Z,136.43
2019-02-28T05:40:13.332Z,145.03
2019-02-28T05:42:40.961Z,163.53
2019-02-28T05:45:11.425Z,151.27
2019-02-28T05:47:46.280Z,135.73
2019-02-28T05:50:07.890Z,140.90
2019-02-28T05:52:35.312Z,139.27
2019-02-28T05:55:02.949Z,136.10
2019-02-28T05:57:30.311Z,138.77
2019-02-28T06:00:01.879Z,142.40
2019-02-28T06:02:27.718Z,144.07
2019-02-28T06:04:55.976Z,139.40
2019-02-28T06:07:25.916Z,138.57
2019-02-28T06:09:54.214Z,171.57
2019-02-28T06:12:21.607Z,148.17
2019-02-28T06:14:49.026Z,159.47
2019-02-28T06:17:17.342Z,146.47
2019-02-28T06:19:46.214Z,162.90
2019-02-28T06:22:13.815Z,139.47
2019-02-28T06:24:44.870Z,157.87
2019-02-28T06:27:10.986Z,145.20
2019-02-28T06:29:38.843Z,154.47
2019-02-28T06:32:06.209Z,137.90
2019-02-28T06:34:39.444Z,151.90
2019-02-28T06:37:07.392Z,140.90
2019-02-28T06:39:34.714Z,160.60
2019-02-28T06:42:02.309Z,160.70
2019-02-28T06:44:29.634Z,155.03
2019-02-28T06:46:57.072Z,136.27
2019-02-28T06:49:24.468Z,145.33
2019-02-28T06:51:52.171Z,138.20
2019-02-28T06:54:20.501Z,158.60
2019-02-28T06:56:47.874Z,154.73
2019-02-28T06:59:16.251Z,154.93
2019-02-28T07:01:44.175Z,141.47
2019-02-28T07:04:14.462Z,147.07
2019-02-28T07:06:41.380Z,143.00
2019-02-28T07:09:08.792Z,160.30
2019-02-28T07:11:36.245Z,144.23
2019-02-28T07:14:03.789Z,145.67
2019-02-28T07:16:34.564Z,140.97
2019-02-28T07:19:02.398Z,148.17
2019-02-28T07:21:30.983Z,141.73
2019-02-28T07:23:58.395Z,142.90
2019-02-28T07:26:25.721Z,138.27
2019-02-28T07:28:53.215Z,140.87
2019-02-28T07:31:21.745Z,142.87
2019-02-28T07:33:51.403Z,151.30
2019-02-28T07:36:18.884Z,138.77
2019-02-28T07:38:46.352Z,138.67
2019-02-28T07:41:14.140Z,148.87
2019-02-28T07:43:45.857Z,155.33
2019-02-28T07:46:10.724Z,141.13
2019-02-28T07:48:38.207Z,139.33
2019-02-28T07:51:05.822Z,140.67
2019-02-28T07:53:33.483Z,141.30
2019-02-28T07:56:03.851Z,135.03
2019-02-28T07:58:34.444Z,151.37
2019-02-28T08:01:01.824Z,141.07
2019-02-28T08:03:29.396Z,140.43
2019-02-28T08:05:57.241Z,144.93
2019-02-28T08:08:26.466Z,140.43
2019-02-28T08:10:54.504Z,155.60
2019-02-28T08:13:24.773Z,140.20
2019-02-28T08:15:53.374Z,140.23
2019-02-28T08:18:21.785Z,140.23
2019-02-28T08:20:49.303Z,138.47
2019-02-28T08:23:16.727Z,137.67
2019-02-28T08:25:44.124Z,138.40
2019-02-28T08:28:11.480Z,142.53
2019-02-28T08:30:41.018Z,136.13
2019-02-28T08:33:08.641Z,140.97
2019-02-28T08:35:36.220Z,137.40
2019-02-28T08:38:04.070Z,144.50
2019-02-28T08:40:31.702Z,145.17
2019-02-28T08:42:59.161Z,147.20
2019-02-28T08:45:32.621Z,140.70
2019-02-28T08:47:56.956Z,152.73
2019-02-28T08:50:24.738Z,151.07
2019-02-28T08:52:52.467Z,147.00
2019-02-28T08:55:28.609Z,150.13
2019-02-28T08:57:54.710Z,148.80
2019-02-28T09:00:21.667Z,152.10
2019-02-28T09:02:52.223Z,155.67
2019-02-28T09:05:18.758Z,151.27
2019-02-28T09:07:50.804Z,150.27
2019-02-28T09:10:18.465Z,149.37
2019-02-28T09:12:48.472Z,149.57
2019-02-28T09:15:16.755Z,149.93
2019-02-28T09:17:44.346Z,142.53
2019-02-28T09:20:13.248Z,148.40
2019-02-28T09:22:40.727Z,141.83
2019-02-28T09:25:10.897Z,157.07
2019-02-28T09:27:38.780Z,142.67
2019-02-28T09:30:12.926Z,147.80
2019-02-28T09:32:40.374Z,143.10
2019-02-28T09:35:12.261Z,146.93
2019-02-28T09:37:37.435Z,149.10
2019-02-28T09:40:06.974Z,148.90
2019-02-28T09:42:34.470Z,144.03
2019-02-28T09:45:06.425Z,150.03
2019-02-28T09:47:31.714Z,143.50
2019-02-28T09:49:59.236Z,161.10
2019-02-28T09:52:26.857Z,144.00
2019-02-28T09:54:56.378Z,146.73
2019-02-28T09:57:23.706Z,160.97
2019-02-28T09:59:51.229Z,151.53
2019-02-28T10:02:18.705Z,160.47
2019-02-28T10:04:46.290Z,155.10
2019-02-28T10:07:13.821Z,150.10
2019-02-28T10:09:44.372Z,148.77
2019-02-28T10:12:12.952Z,141.07
2019-02-28T10:14:40.824Z,178.00
2019-02-28T10:17:08.245Z,150.33
2019-02-28T10:19:44.816Z,156.33
2019-02-28T10:22:04.976Z,144.50
2019-02-28T10:24:32.402Z,150.67
2019-02-28T10:26:59.759Z,145.23
2019-02-28T10:29:27.360Z,152.63
2019-02-28T10:31:54.859Z,150.63
2019-02-28T10:34:23.517Z,148.60
2019-02-28T10:36:51.728Z,148.10
2019-02-28T10:39:19.464Z,173.47
2019-02-28T10:41:47.049Z,144.13
2019-02-28T10:44:14.726Z,167.43
2019-02-28T10:46:42.107Z,151.03
2019-02-28T10:49:09.489Z,159.40
2019-02-28T10:51:37.011Z,146.37
2019-02-28T10:54:04.686Z,151.33
2019-02-28T10:56:34.961Z,149.63
2019-02-28T10:59:02.672Z,153.17
2019-02-28T11:01:30.112Z,148.47
2019-02-28T11:03:57.719Z,154.37
2019-02-28T11:06:28.247Z,163.60
2019-02-28T11:08:54.957Z,155.00
2019-02-28T11:11:22.571Z,149.23
2019-02-28T11:13:50.065Z,147.73
2019-02-28T11:16:20.476Z,166.37
2019-02-28T11:18:47.093Z,148.20
2019-02-28T11:21:14.783Z,154.80
2019-02-28T11:23:42.726Z,153.77
2019-02-28T11:26:10.476Z,154.33
2019-02-28T11:28:38.152Z,145.57
2019-02-28T11:31:05.703Z,165.40
2019-02-28T11:33:33.371Z,155.33
2019-02-28T11:36:01.014Z,153.17
2019-02-28T11:38:29.490Z,141.50
2019-02-28T11:40:57.706Z,164.43
2019-02-28T11:43:26.790Z,161.27
2019-02-28T11:45:56.556Z,155.97
2019-02-28T11:48:24.995Z,150.87
2019-02-28T11:50:53.524Z,154.73
2019-02-28T11:53:21.006Z,161.23
2019-02-28T11:55:48.569Z,151.50
2019-02-28T11:58:17.593Z,150.40
2019-02-28T12:00:45.599Z,147.97
2019-02-28T12:03:13.159Z,149.03
2019-02-28T12:05:40.715Z,152.47
2019-02-28T12:08:10.481Z,166.70
2019-02-28T12:10:37.858Z,144.30
2019-02-28T12:13:05.310Z,150.03
2019-02-28T12:15:32.968Z,156.90
2019-02-28T12:18:04.474Z,153.80
2019-02-28T12:20:30.218Z,147.40
2019-02-28T12:22:57.702Z,143.30
2019-02-28T12:25:26.604Z,145.87
2019-02-28T12:27:55.327Z,143.57
2019-02-28T12:30:26.040Z,160.87
2019-02-28T12:32:53.716Z,147.10
2019-02-28T12:35:21.320Z,140.90
2019-02-28T12:37:48.995Z,147.03
2019-02-28T12:40:22.769Z,147.53
2019-02-28T12:42:51.390Z,140.93
2019-02-28T12:45:26.558Z,146.80
2019-02-28T12:47:55.662Z,145.20
2019-02-28T12:50:23.571Z,150.77
2019-02-28T12:52:50.889Z,147.80
2019-02-28T12:55:18.512Z,143.53
2019-02-28T12:57:45.996Z,147.73
2019-02-28T13:00:23.427Z,141.03
2019-02-28T13:02:49.534Z,139.73
2019-02-28T13:05:17.387Z,147.40
2019-02-28T13:07:45.258Z,148.57
2019-02-28T13:10:15.961Z,141.67
2019-02-28T13:12:48.861Z,154.83
2019-02-28T13:15:15.725Z,146.07
2019-02-28T13:17:44.429Z,145.47
2019-02-28T13:20:14.979Z,138.83
2019-02-28T13:22:43.014Z,153.40
2019-02-28T13:25:11.846Z,144.93
2019-02-28T13:27:41.430Z,143.67
2019-02-28T13:30:21.418Z,147.17
2019-02-28T13:32:50.850Z,148.33
2019-02-28T13:35:24.932Z,149.23
2019-02-28T13:37:53.991Z,147.63
2019-02-28T13:40:22.931Z,149.73
2019-02-28T13:42:50.751Z,145.93
2019-02-28T13:45:23.244Z,146.17
2019-02-28T13:47:52.286Z,163.97
2019-02-28T13:50:27.100Z,165.73
2019-02-28T13:52:55.919Z,151.70
2019-02-28T13:55:24.361Z,158.53
2019-02-28T13:57:54.997Z,161.77
2019-02-28T14:00:28.246Z,169.93
2019-02-28T14:03:01.071Z,160.00
2019-02-28T14:05:28.964Z,157.23
2019-02-28T14:07:56.642Z,150.83
2019-02-28T14:10:24.387Z,148.70
2019-02-28T14:12:53.207Z,149.37
2019-02-28T14:15:26.118Z,153.60
2019-02-28T14:17:53.647Z,157.10
2019-02-28T14:20:24.509Z,156.17
2019-02-28T14:22:51.225Z,150.40
2019-02-28T14:25:19.323Z,156.47
2019-02-28T14:27:46.922Z,158.60
2019-02-28T14:30:14.697Z,146.67
2019-02-28T14:32:45.411Z,146.33
2019-02-28T14:35:14.475Z,147.13
2019-02-28T14:37:42.201Z,150.27
2019-02-28T14:40:11.262Z,147.53
2019-02-28T14:42:40.816Z,165.67
2019-02-28T14:45:11.466Z,150.20
2019-02-28T14:47:39.172Z,156.47
2019-02-28T14:50:08.329Z,148.73
2019-02-28T14:52:39.367Z,155.63
2019-02-28T14:55:07.941Z,144.73
2019-02-28T14:57:35.647Z,148.67
2019-02-28T15:00:06.487Z,137.40
2019-02-28T15:02:34.820Z,133.20
2019-02-28T15:05:02.235Z,140.73
2019-02-28T15:07:29.696Z,136.13
2019-02-28T15:09:58.940Z,137.73
2019-02-28T15:12:26.867Z,126.50
2019-02-28T15:14:54.641Z,139.07
2019-02-28T15:17:22.513Z,140.37
2019-02-28T15:19:50.098Z,145.43
2019-02-28T15:22:21.083Z,127.53
2019-02-28T15:24:47.707Z,141.07
2019-02-28T15:27:19.228Z,129.63
2019-02-28T15:29:47.881Z,125.53
2019-02-28T15:32:17.086Z,126.93
2019-02-28T15:34:44.789Z,133.10
2019-02-28T15:37:13.976Z,122.87
2019-02-28T15:39:43.422Z,136.07
2019-02-28T15:42:11.206Z,125.23
2019-02-28T15:44:38.629Z,141.77
2019-02-28T15:47:06.290Z,122.43
2019-02-28T15:49:33.871Z,137.30
2019-02-28T15:52:01.841Z,120.17
2019-02-28T15:54:31.048Z,132.57
2019-02-28T15:56:58.635Z,129.87
2019-02-28T15:59:27.502Z,130.27
2019-02-28T16:01:54.984Z,123.87
2019-02-28T16:04:26.249Z,130.90
2019-02-28T16:06:57.950Z,118.03
2019-02-28T16:09:22.558Z,137.40
2019-02-28T16:11:50.033Z,125.73
2019-02-28T16:14:17.860Z,135.33
2019-02-28T16:16:46.272Z,125.90
2019-02-28T16:19:13.981Z,137.90
2019-02-28T16:21:42.487Z,127.00
2019-02-28T16:24:11.781Z,137.17
2019-02-28T16:26:39.384Z,127.67
2019-02-28T16:29:06.809Z,137.37
2019-02-28T16:31:35.326Z,134.00
2019-02-28T16:34:08.102Z,138.00
2019-02-28T16:36:32.708Z,135.50
2019-02-28T16:39:00.600Z,135.17
2019-02-28T16:41:27.966Z,127.00
2019-02-28T16:43:57.158Z,122.63
2019-02-28T16:46:25.550Z,129.83
2019-02-28T16:48:53.112Z,126.13
2019-02-28T16:51:22.316Z,119.20
2019-02-28T16:53:49.944Z,127.37
2019-02-28T16:56:18.051Z,127.43
2019-02-28T16:58:45.509Z,120.20
2019-02-28T17:01:14.115Z,141.07
2019-02-28T17:03:41.902Z,127.80
2019-02-28T17:06:10.564Z,136.80
2019-02-28T17:08:45.801Z,135.17
2019-02-28T17:11:14.617Z,126.80
2019-02-28T17:13:51.741Z,126.73
2019-02-28T17:16:25.866Z,143.30
2019-02-28T17:18:56.875Z,129.17
2019-02-28T17:21:23.231Z,142.90
2019-02-28T17:23:50.823Z,128.80
2019-02-28T17:26:21.554Z,118.30
2019-02-28T17:29:13.961Z,137.27
2019-02-28T17:31:48.219Z,126.07
2019-02-28T17:34:23.871Z,137.43
2019-02-28T17:36:49.879Z,147.57
2019-02-28T17:39:17.314Z,134.53
2019-02-28T17:41:45.856Z,134.83
2019-02-28T17:45:03.246Z,130.10
2019-02-28T17:48:12.842Z,128.60
2019-02-28T17:51:22.006Z,128.37
2019-02-28T17:54:46.483Z,139.13
2019-02-28T17:58:18.974Z,127.27
2019-02-28T18:01:37.905Z,129.43
2019-02-28T18:05:00.842Z,141.13
2019-02-28T18:08:20.090Z,120.20
2019-02-28T18:11:35.114Z,134.97
2019-02-28T18:14:34.814Z,142.80
2019-02-28T18:17:54.598Z,126.77
2019-02-28T18:21:06.267Z,127.10
2019-02-28T18:24:42.064Z,125.23
2019-02-28T18:28:03.164Z,128.40
2019-02-28T18:31:04.883Z,135.60
2019-02-28T18:33:32.384Z,134.93
2019-02-28T18:35:59.863Z,147.17
2019-02-28T18:38:27.767Z,130.77
2019-02-28T18:40:55.545Z,144.27
2019-02-28T18:43:23.924Z,130.93
2019-02-28T18:45:53.625Z,126.13
2019-02-28T18:48:22.210Z,137.87
2019-02-28T18:50:49.620Z,157.40
2019-02-28T18:53:17.193Z,134.97
2019-02-28T18:55:44.754Z,131.53
2019-02-28T18:58:15.288Z,133.57
2019-02-28T19:00:43.015Z,144.20
2019-02-28T19:03:10.732Z,140.13
2019-02-28T19:05:38.231Z,137.10
2019-02-28T19:08:05.795Z,136.73
2019-02-28T19:10:34.341Z,144.70
2019-02-28T19:13:02.741Z,140.10
2019-02-28T19:15:30.343Z,137.37
2019-02-28T19:17:57.968Z,149.50
2019-02-28T19:20:25.713Z,143.43
2019-02-28T19:22:53.330Z,140.07
2019-02-28T19:25:21.353Z,146.30
2019-02-28T19:27:48.847Z,150.17
2019-02-28T19:30:17.329Z,140.87
2019-02-28T19:32:45.493Z,133.37
2019-02-28T19:35:13.137Z,139.37
2019-02-28T19:37:40.719Z,133.80
2019-02-28T19:40:08.811Z,139.97
2019-02-28T19:42:36.469Z,136.87
2019-02-28T19:45:07.372Z,131.87
2019-02-28T19:47:34.927Z,137.70
2019-02-28T19:50:03.313Z,150.03
2019-02-28T19:52:31.989Z,141.63
2019-02-28T19:54:59.783Z,156.77
2019-02-28T19:57:27.549Z,144.90
2019-02-28T19:59:57.014Z,156.97
2019-02-28T20:02:24.545Z,165.67
2019-02-28T20:04:52.710Z,169.07
2019-02-28T20:07:20.318Z,152.30
2019-02-28T20:09:47.972Z,159.10
2019-02-28T20:12:15.602Z,154.03
2019-02-28T20:14:43.220Z,155.20
2019-02-28T20:17:10.716Z,146.20
2019-02-28T20:19:38.267Z,156.40
2019-02-28T20:22:06.070Z,149.20
2019-02-28T20:24:33.560Z,152.33
2019-02-28T20:27:01.144Z,153.37
2019-02-28T20:29:28.650Z,167.60
2019-02-28T20:31:56.134Z,149.90
2019-02-28T20:34:23.925Z,171.60
2019-02-28T20:36:51.620Z,148.83
2019-02-28T20:39:19.398Z,160.90
2019-02-28T20:41:46.907Z,150.17
2019-02-28T20:44:14.481Z,160.10
2019-02-28T20:46:41.979Z,155.30
2019-02-28T20:49:10.042Z,174.20
2019-02-28T20:51:37.610Z,159.53
2019-02-28T20:54:05.815Z,157.30
2019-02-28T20:56:33.770Z,158.97
2019-02-28T20:59:01.307Z,160.77
2019-02-28T21:01:29.279Z,149.13
2019-02-28T21:03:57.371Z,151.90
2019-02-28T21:06:25.137Z,153.70
2019-02-28T21:08:52.826Z,154.83
2019-02-28T21:11:21.661Z,166.43
2019-02-28T21:13:49.225Z,155.60
2019-02-28T21:16:17.043Z,155.27
2019-02-28T21:18:45.619Z,159.40
2019-02-28T21:21:13.146Z,157.30
2019-02-28T21:23:42.253Z,149.33
2019-02-28T21:26:09.975Z,156.00
2019-02-28T21:28:37.624Z,147.47
2019-02-28T21:31:05.202Z,162.67
2019-02-28T21:33:33.009Z,146.37
2019-02-28T21:36:00.925Z,167.47
2019-02-28T21:38:28.537Z,154.97
2019-02-28T21:40:56.095Z,149.93
2019-02-28T21:43:24.050Z,147.30
2019-02-28T21:45:51.984Z,151.33
2019-02-28T21:48:20.310Z,146.67
2019-02-28T21:50:49.025Z,158.77
2019-02-28T21:53:29.019Z,151.50
2019-02-28T21:55:59.540Z,162.07
2019-02-28T21:58:31.232Z,150.97
2019-02-28T22:01:00.582Z,146.23
2019-02-28T22:03:30.015Z,145.27
2019-02-28T22:06:00.148Z,144.13
2019-02-28T22:08:28.110Z,148.30
2019-02-28T22:10:55.492Z,144.37
2019-02-28T22:13:22.995Z,147.30
2019-02-28T22:15:50.854Z,147.70
2019-02-28T22:18:18.422Z,141.60
2019-02-28T22:21:15.625Z,135.20
2019-02-28T22:23:44.236Z,143.70
2019-02-28T22:26:11.981Z,146.73
2019-02-28T22:28:39.498Z,147.60
2019-02-28T22:31:44.656Z,144.77
2019-02-28T22:34:25.533Z,163.83
2019-02-28T22:36:52.907Z,149.27
2019-02-28T22:39:20.942Z,158.67
2019-02-28T22:41:48.364Z,145.90
2019-02-28T22:44:15.943Z,160.20
2019-02-28T22:46:43.543Z,145.50
2019-02-28T22:49:11.060Z,159.07
2019-02-28T22:51:38.457Z,143.20
2019-02-28T22:54:06.125Z,169.17
2019-02-28T22:56:33.583Z,143.73
2019-02-28T22:59:01.241Z,151.40
2019-02-28T23:01:29.425Z,154.07
2019-02-28T23:03:57.846Z,151.67
2019-02-28T23:06:27.400Z,159.57
2019-02-28T23:08:56.852Z,159.03
2019-02-28T23:11:26.248Z,154.57
2019-02-28T23:13:53.743Z,155.93
2019-02-28T23:16:24.597Z,146.60
2019-02-28T23:18:52.009Z,142.83
2019-02-28T23:21:19.548Z,149.43
2019-02-28T23:23:47.228Z,148.37
2019-02-28T23:26:14.900Z,149.87
2019-02-28T23:29:03.540Z,148.47
2019-02-28T23:32:22.836Z,147.13
2019-02-28T23:34:52.901Z,154.87
2019-02-28T23:37:20.511Z,148.43
2019-02-28T23:39:47.939Z,161.83
2019-02-28T23:42:16.550Z,149.40
2019-02-28T23:44:44.280Z,175.33
2019-02-28T23:47:11.724Z,151.57
2019-02-28T23:49:40.113Z,159.17
2019-02-28T23:52:07.824Z,151.30
2019-02-28T23:54:35.465Z,169.43
2019-02-28T23:57:03.064Z,153.87
2019-02-28T23:59:30.517Z,160.10
